sensor_id;sensor_type;location;lat;lon;timestamp;pressure;altitude;pressure_sealevel;temperature;humidity
59367;BME280;45163;47.690;11.770;2023-03-03T00:01:31;93315.13;;;-0.48;100.00
59367;BME280;45163;47.690;11.770;2023-03-03T00:03:58;93308.72;;;-0.40;100.00
59367;BME280;45163;47.690;11.770;2023-03-03T00:06:24;93316.81;;;-0.36;100.00
59367;BME280;45163;47.690;11.770;2023-03-03T00:08:51;93317.53;;;-0.39;100.00
59367;BME280;45163;47.690;11.770;2023-03-03T00:11:18;93310.22;;;-0.42;100.00
59367;BME280;45163;47.690;11.770;2023-03-03T00:13:49;93318.19;;;-0.49;100.00
59367;BME280;45163;47.690;11.770;2023-03-03T00:16:26;93319.34;;;-0.47;100.00
59367;BME280;45163;47.690;11.770;2023-03-03T00:18:53;93317.09;;;-0.45;100.00
59367;BME280;45163;47.690;11.770;2023-03-03T00:24:20;93312.91;;;-0.42;100.00
59367;BME280;45163;47.690;11.770;2023-03-03T00:26:47;93314.47;;;-0.41;100.00
59367;BME280;45163;47.690;11.770;2023-03-03T00:29:26;93323.72;;;-0.35;100.00
59367;BME280;45163;47.690;11.770;2023-03-03T00:31:52;93320.94;;;-0.42;100.00
59367;BME280;45163;47.690;11.770;2023-03-03T00:34:28;93327.06;;;-0.42;100.00
59367;BME280;45163;47.690;11.770;2023-03-03T00:36:57;93317.50;;;-0.43;100.00
59367;BME280;45163;47.690;11.770;2023-03-03T00:39:36;93318.25;;;-0.46;100.00
59367;BME280;45163;47.690;11.770;2023-03-03T00:42:16;93323.22;;;-0.44;100.00
59367;BME280;45163;47.690;11.770;2023-03-03T00:44:58;93325.13;;;-0.45;100.00
59367;BME280;45163;47.690;11.770;2023-03-03T00:52:37;93331.28;;;-0.44;100.00
59367;BME280;45163;47.690;11.770;2023-03-03T00:55:05;93322.47;;;-0.45;100.00
59367;BME280;45163;47.690;11.770;2023-03-03T00:57:31;93319.00;;;-0.45;100.00
59367;BME280;45163;47.690;11.770;2023-03-03T00:59:57;93314.47;;;-0.41;100.00
59367;BME280;45163;47.690;11.770;2023-03-03T01:02:23;93313.66;;;-0.42;100.00
59367;BME280;45163;47.690;11.770;2023-03-03T01:04:51;93317.97;;;-0.37;100.00
59367;BME280;45163;47.690;11.770;2023-03-03T01:07:18;93321.38;;;-0.40;100.00
59367;BME280;45163;47.690;11.770;2023-03-03T01:09:44;93317.53;;;-0.39;100.00
59367;BME280;45163;47.690;11.770;2023-03-03T01:12:10;93320.63;;;-0.37;100.00
59367;BME280;45163;47.690;11.770;2023-03-03T01:14:37;93326.78;;;-0.37;100.00
59367;BME280;45163;47.690;11.770;2023-03-03T01:17:03;93319.53;;;-0.33;100.00
59367;BME280;45163;47.690;11.770;2023-03-03T01:19:30;93321.09;;;-0.32;100.00
59367;BME280;45163;47.690;11.770;2023-03-03T01:21:56;93323.38;;;-0.30;100.00
59367;BME280;45163;47.690;11.770;2023-03-03T01:24:22;93320.34;;;-0.29;100.00
59367;BME280;45163;47.690;11.770;2023-03-03T01:26:48;93319.25;;;-0.24;100.00
59367;BME280;45163;47.690;11.770;2023-03-03T01:29:14;93312.34;;;-0.25;100.00
59367;BME280;45163;47.690;11.770;2023-03-03T01:31:40;93314.66;;;-0.23;100.00
59367;BME280;45163;47.690;11.770;2023-03-03T01:34:06;93314.25;;;-0.26;100.00
59367;BME280;45163;47.690;11.770;2023-03-03T01:36:32;93312.75;;;-0.23;100.00
59367;BME280;45163;47.690;11.770;2023-03-03T01:38:59;93308.97;;;-0.18;100.00
59367;BME280;45163;47.690;11.770;2023-03-03T01:41:27;93313.19;;;-0.17;100.00
59367;BME280;45163;47.690;11.770;2023-03-03T01:43:55;93310.88;;;-0.19;100.00
59367;BME280;45163;47.690;11.770;2023-03-03T01:49:00;93304.72;;;-0.23;100.00
59367;BME280;45163;47.690;11.770;2023-03-03T01:51:31;93311.97;;;-0.23;100.00
59367;BME280;45163;47.690;11.770;2023-03-03T01:54:03;93313.91;;;-0.24;100.00
59367;BME280;45163;47.690;11.770;2023-03-03T01:56:29;93310.44;;;-0.24;100.00
59367;BME280;45163;47.690;11.770;2023-03-03T01:59:04;93309.69;;;-0.21;100.00
59367;BME280;45163;47.690;11.770;2023-03-03T02:01:32;93303.94;;;-0.23;100.00
59367;BME280;45163;47.690;11.770;2023-03-03T02:03:59;93303.50;;;-0.26;100.00
59367;BME280;45163;47.690;11.770;2023-03-03T02:06:28;93300.44;;;-0.28;100.00
59367;BME280;45163;47.690;11.770;2023-03-03T02:11:33;93301.97;;;-0.27;100.00
59367;BME280;45163;47.690;11.770;2023-03-03T02:14:01;93299.34;;;-0.23;100.00
59367;BME280;45163;47.690;11.770;2023-03-03T02:16:27;93297.00;;;-0.28;100.00
59367;BME280;45163;47.690;11.770;2023-03-03T02:18:54;93303.50;;;-0.29;100.00
59367;BME280;45163;47.690;11.770;2023-03-03T02:21:23;93300.03;;;-0.30;100.00
59367;BME280;45163;47.690;11.770;2023-03-03T02:26:38;93298.47;;;-0.31;100.00
59367;BME280;45163;47.690;11.770;2023-03-03T02:29:06;93297.75;;;-0.28;100.00
59367;BME280;45163;47.690;11.770;2023-03-03T02:31:32;93293.22;;;-0.23;100.00
59367;BME280;45163;47.690;11.770;2023-03-03T02:33:59;93290.09;;;-0.26;100.00
59367;BME280;45163;47.690;11.770;2023-03-03T02:36:27;93282.44;;;-0.27;100.00
59367;BME280;45163;47.690;11.770;2023-03-03T02:44:03;93299.38;;;-0.19;100.00
59367;BME280;45163;47.690;11.770;2023-03-03T02:46:39;93305.09;;;-0.21;100.00
59367;BME280;45163;47.690;11.770;2023-03-03T02:49:07;93299.38;;;-0.19;100.00
59367;BME280;45163;47.690;11.770;2023-03-03T02:51:34;93292.47;;;-0.20;100.00
59367;BME280;45163;47.690;11.770;2023-03-03T02:54:01;93296.31;;;-0.18;100.00
59367;BME280;45163;47.690;11.770;2023-03-03T02:56:27;93295.56;;;-0.18;100.00
59367;BME280;45163;47.690;11.770;2023-03-03T02:58:53;93302.47;;;-0.17;100.00
59367;BME280;45163;47.690;11.770;2023-03-03T03:01:20;93299.09;;;-0.11;100.00
59367;BME280;45163;47.690;11.770;2023-03-03T03:03:46;93299.47;;;-0.09;100.00
59367;BME280;45163;47.690;11.770;2023-03-03T03:06:13;93298.72;;;-0.09;100.00
59367;BME280;45163;47.690;11.770;2023-03-03T03:08:39;93297.56;;;-0.12;100.00
59367;BME280;45163;47.690;11.770;2023-03-03T03:11:05;93303.31;;;-0.10;100.00
59367;BME280;45163;47.690;11.770;2023-03-03T03:13:32;93293.72;;;-0.11;100.00
59367;BME280;45163;47.690;11.770;2023-03-03T03:15:59;93286.81;;;-0.12;100.00
59367;BME280;45163;47.690;11.770;2023-03-03T03:18:26;93291.81;;;-0.10;100.00
59367;BME280;45163;47.690;11.770;2023-03-03T03:20:52;93288.38;;;-0.11;100.00
59367;BME280;45163;47.690;11.770;2023-03-03T03:23:18;93289.84;;;-0.13;100.00
59367;BME280;45163;47.690;11.770;2023-03-03T03:25:47;93287.59;;;-0.11;100.00
59367;BME280;45163;47.690;11.770;2023-03-03T03:28:15;93289.50;;;-0.12;100.00
59367;BME280;45163;47.690;11.770;2023-03-03T03:30:42;93290.63;;;-0.16;100.00
59367;BME280;45163;47.690;11.770;2023-03-03T03:33:11;93290.97;;;-0.18;100.00
59367;BME280;45163;47.690;11.770;2023-03-03T03:35:38;93289.81;;;-0.20;100.00
59367;BME280;45163;47.690;11.770;2023-03-03T03:38:10;93286.75;;;-0.19;100.00
59367;BME280;45163;47.690;11.770;2023-03-03T03:40:37;93287.13;;;-0.17;100.00
59367;BME280;45163;47.690;11.770;2023-03-03T03:43:03;93287.56;;;-0.15;100.00
59367;BME280;45163;47.690;11.770;2023-03-03T03:45:29;93286.88;;;-0.08;100.00
59367;BME280;45163;47.690;11.770;2023-03-03T03:47:54;93284.19;;;-0.08;100.00
59367;BME280;45163;47.690;11.770;2023-03-03T03:50:20;93284.19;;;-0.08;100.00
59367;BME280;45163;47.690;11.770;2023-03-03T03:52:50;93279.13;;;-0.13;100.00
59367;BME280;45163;47.690;11.770;2023-03-03T03:55:16;93277.97;;;-0.16;100.00
59367;BME280;45163;47.690;11.770;2023-03-03T03:57:42;93282.91;;;-0.18;100.00
59367;BME280;45163;47.690;11.770;2023-03-03T04:00:09;93276.09;;;-0.12;100.00
59367;BME280;45163;47.690;11.770;2023-03-03T04:02:35;93273.75;;;-0.13;100.00
59367;BME280;45163;47.690;11.770;2023-03-03T04:05:02;93274.22;;;-0.08;100.00
59367;BME280;45163;47.690;11.770;2023-03-03T04:07:28;93279.22;;;-0.06;100.00
59367;BME280;45163;47.690;11.770;2023-03-03T04:09:54;93277.28;;;-0.06;100.00
59367;BME280;45163;47.690;11.770;2023-03-03T04:12:20;93273.88;;;-0.03;100.00
59367;BME280;45163;47.690;11.770;2023-03-03T04:14:46;93270.09;;;0.02;100.00
59367;BME280;45163;47.690;11.770;2023-03-03T04:17:22;93273.16;;;0.01;100.00
59367;BME280;45163;47.690;11.770;2023-03-03T04:19:52;93273.16;;;0.01;100.00
59367;BME280;45163;47.690;11.770;2023-03-03T04:22:18;93272.81;;;0.06;100.00
59367;BME280;45163;47.690;11.770;2023-03-03T04:24:44;93271.72;;;0.10;100.00
59367;BME280;45163;47.690;11.770;2023-03-03T04:27:13;93277.06;;;0.10;100.00
59367;BME280;45163;47.690;11.770;2023-03-03T04:29:40;93269.03;;;0.10;100.00
59367;BME280;45163;47.690;11.770;2023-03-03T04:32:07;93271.34;;;0.12;100.00
59367;BME280;45163;47.690;11.770;2023-03-03T04:34:33;93279.78;;;0.14;100.00
59367;BME280;45163;47.690;11.770;2023-03-03T04:36:59;93266.72;;;0.09;100.00
59367;BME280;45163;47.690;11.770;2023-03-03T04:39:25;93275.13;;;0.07;100.00
59367;BME280;45163;47.690;11.770;2023-03-03T04:41:51;93276.22;;;0.03;100.00
59367;BME280;45163;47.690;11.770;2023-03-03T04:44:17;93278.16;;;0.02;100.00
59367;BME280;45163;47.690;11.770;2023-03-03T04:46:43;93280.44;;;0.04;100.00
59367;BME280;45163;47.690;11.770;2023-03-03T04:49:09;93275.84;;;0.01;100.00
59367;BME280;45163;47.690;11.770;2023-03-03T04:51:35;93281.97;;;0.01;100.00
59367;BME280;45163;47.690;11.770;2023-03-03T04:54:01;93289.59;;;-0.01;100.00
59367;BME280;45163;47.690;11.770;2023-03-03T04:56:29;93287.69;;;-0.01;100.00
59367;BME280;45163;47.690;11.770;2023-03-03T04:58:56;93286.19;;;0.02;100.00
59367;BME280;45163;47.690;11.770;2023-03-03T05:01:22;93297.31;;;0.01;100.00
59367;BME280;45163;47.690;11.770;2023-03-03T05:03:48;93295.34;;;-0.03;100.00
59367;BME280;45163;47.690;11.770;2023-03-03T05:06:14;93306.84;;;-0.02;100.00
59367;BME280;45163;47.690;11.770;2023-03-03T05:08:44;93301.09;;;-0.04;100.00
59367;BME280;45163;47.690;11.770;2023-03-03T05:11:10;93299.19;;;-0.04;100.00
59367;BME280;45163;47.690;11.770;2023-03-03T05:13:36;93306.47;;;-0.01;100.00
59367;BME280;45163;47.690;11.770;2023-03-03T05:16:03;93302.63;;;-0.03;100.00
59367;BME280;45163;47.690;11.770;2023-03-03T05:18:29;93306.09;;;-0.03;100.00
59367;BME280;45163;47.690;11.770;2023-03-03T05:20:55;93305.69;;;-0.01;100.00
59367;BME280;45163;47.690;11.770;2023-03-03T05:23:21;93309.25;;;0.07;100.00
59367;BME280;45163;47.690;11.770;2023-03-03T05:25:48;93311.16;;;0.06;100.00
59367;BME280;45163;47.690;11.770;2023-03-03T05:28:14;93310.38;;;0.06;100.00
59367;BME280;45163;47.690;11.770;2023-03-03T05:30:40;93312.34;;;0.09;100.00
59367;BME280;45163;47.690;11.770;2023-03-03T05:33:06;93312.34;;;0.09;100.00
59367;BME280;45163;47.690;11.770;2023-03-03T05:35:32;93312.25;;;0.02;100.00
59367;BME280;45163;47.690;11.770;2023-03-03T05:37:58;93303.78;;;-0.01;100.00
59367;BME280;45163;47.690;11.770;2023-03-03T05:40:25;93309.56;;;0.02;100.00
59367;BME280;45163;47.690;11.770;2023-03-03T05:42:52;93314.53;;;-0.01;100.00
59367;BME280;45163;47.690;11.770;2023-03-03T05:45:19;93314.13;;;-0.03;100.00
59367;BME280;45163;47.690;11.770;2023-03-03T05:47:47;93315.66;;;-0.02;100.00
59367;BME280;45163;47.690;11.770;2023-03-03T05:50:13;93314.16;;;0.01;100.00
59367;BME280;45163;47.690;11.770;2023-03-03T05:52:39;93319.53;;;0.01;100.00
59367;BME280;45163;47.690;11.770;2023-03-03T05:55:05;93314.56;;;0.03;100.00
59367;BME280;45163;47.690;11.770;2023-03-03T05:57:31;93322.25;;;0.05;100.00
59367;BME280;45163;47.690;11.770;2023-03-03T05:59:57;93317.66;;;0.05;100.00
59367;BME280;45163;47.690;11.770;2023-03-03T06:02:23;93324.19;;;0.08;100.00
59367;BME280;45163;47.690;11.770;2023-03-03T06:04:49;93327.66;;;0.08;100.00
59367;BME280;45163;47.690;11.770;2023-03-03T06:07:15;93325.38;;;0.10;100.00
59367;BME280;45163;47.690;11.770;2023-03-03T06:09:41;93316.56;;;0.10;100.00
59367;BME280;45163;47.690;11.770;2023-03-03T06:12:07;93316.56;;;0.10;100.00
59367;BME280;45163;47.690;11.770;2023-03-03T06:14:33;93322.31;;;0.12;100.00
59367;BME280;45163;47.690;11.770;2023-03-03T06:16:59;93325.41;;;0.14;100.00
59367;BME280;45163;47.690;11.770;2023-03-03T06:19:25;93323.13;;;0.16;100.00
59367;BME280;45163;47.690;11.770;2023-03-03T06:21:52;93331.19;;;0.16;100.00
59367;BME280;45163;47.690;11.770;2023-03-03T06:24:18;93333.13;;;0.19;100.00
59367;BME280;45163;47.690;11.770;2023-03-03T06:26:44;93333.94;;;0.23;100.00
59367;BME280;45163;47.690;11.770;2023-03-03T06:29:09;93338.59;;;0.26;100.00
59367;BME280;45163;47.690;11.770;2023-03-03T06:31:35;93344.72;;;0.27;100.00
59367;BME280;45163;47.690;11.770;2023-03-03T06:34:01;93342.84;;;0.31;100.00
59367;BME280;45163;47.690;11.770;2023-03-03T06:36:27;93343.28;;;0.36;100.00
59367;BME280;45163;47.690;11.770;2023-03-03T06:38:53;93351.00;;;0.41;100.00
59367;BME280;45163;47.690;11.770;2023-03-03T06:41:19;93352.19;;;0.44;100.00
59367;BME280;45163;47.690;11.770;2023-03-03T06:43:45;93354.13;;;0.47;100.00
59367;BME280;45163;47.690;11.770;2023-03-03T06:46:14;93356.84;;;0.51;100.00
59367;BME280;45163;47.690;11.770;2023-03-03T06:48:42;93362.63;;;0.53;100.00
59367;BME280;45163;47.690;11.770;2023-03-03T06:51:22;93371.09;;;0.58;100.00
59367;BME280;45163;47.690;11.770;2023-03-03T06:53:52;93366.16;;;0.60;100.00
59367;BME280;45163;47.690;11.770;2023-03-03T06:56:18;93370.78;;;0.63;100.00
59367;BME280;45163;47.690;11.770;2023-03-03T06:58:44;93367.72;;;0.65;100.00
59367;BME280;45163;47.690;11.770;2023-03-03T07:01:16;93376.97;;;0.67;100.00
59367;BME280;45163;47.690;11.770;2023-03-03T07:03:43;93376.97;;;0.71;100.00
59367;BME280;45163;47.690;11.770;2023-03-03T07:06:21;93380.06;;;0.73;100.00
59367;BME280;45163;47.690;11.770;2023-03-03T07:08:49;93385.47;;;0.77;100.00
59367;BME280;45163;47.690;11.770;2023-03-03T07:11:18;93382.44;;;0.82;100.00
59367;BME280;45163;47.690;11.770;2023-03-03T07:13:54;93383.22;;;0.82;100.00
59367;BME280;45163;47.690;11.770;2023-03-03T07:16:26;93386.03;;;0.96;100.00
59367;BME280;45163;47.690;11.770;2023-03-03T07:18:56;93393.00;;;1.01;100.00
59367;BME280;45163;47.690;11.770;2023-03-03T07:21:41;93397.97;;;1.03;100.00
59367;BME280;45163;47.690;11.770;2023-03-03T07:24:24;93396.44;;;1.02;100.00
59367;BME280;45163;47.690;11.770;2023-03-03T07:26:52;93397.59;;;1.04;100.00
59367;BME280;45163;47.690;11.770;2023-03-03T07:29:24;93399.56;;;1.07;100.00
59367;BME280;45163;47.690;11.770;2023-03-03T07:31:52;93395.31;;;1.06;100.00
59367;BME280;45163;47.690;11.770;2023-03-03T07:34:23;93398.38;;;1.01;100.00
59367;BME280;45163;47.690;11.770;2023-03-03T07:36:53;93404.13;;;1.03;100.00
59367;BME280;45163;47.690;11.770;2023-03-03T07:39:33;93405.34;;;1.09;100.00
59367;BME280;45163;47.690;11.770;2023-03-03T07:42:20;93406.91;;;1.14;100.00
59367;BME280;45163;47.690;11.770;2023-03-03T07:44:49;93409.16;;;1.08;100.00
59367;BME280;45163;47.690;11.770;2023-03-03T07:49:47;93402.91;;;0.93;100.00
59367;BME280;45163;47.690;11.770;2023-03-03T07:52:57;93407.19;;;1.02;100.00
59367;BME280;45163;47.690;11.770;2023-03-03T07:55:35;93410.72;;;1.13;100.00
59367;BME280;45163;47.690;11.770;2023-03-03T07:58:35;93414.19;;;1.10;100.00
59367;BME280;45163;47.690;11.770;2023-03-03T08:03:50;93410.13;;;1.30;100.00
59367;BME280;45163;47.690;11.770;2023-03-03T08:08:48;93413.22;;;1.36;100.00
59367;BME280;45163;47.690;11.770;2023-03-03T08:11:14;93412.91;;;1.44;100.00
59367;BME280;45163;47.690;11.770;2023-03-03T08:13:41;93414.03;;;1.40;100.00
59367;BME280;45163;47.690;11.770;2023-03-03T08:18:35;93419.13;;;1.56;100.00
59367;BME280;45163;47.690;11.770;2023-03-03T08:21:07;93418.38;;;1.62;100.00
59367;BME280;45163;47.690;11.770;2023-03-03T08:23:35;93418.47;;;1.73;100.00
59367;BME280;45163;47.690;11.770;2023-03-03T08:26:01;93419.31;;;1.84;100.00
59367;BME280;45163;47.690;11.770;2023-03-03T08:28:27;93425.84;;;1.87;100.00
59367;BME280;45163;47.690;11.770;2023-03-03T08:30:53;93427.38;;;1.88;100.00
59367;BME280;45163;47.690;11.770;2023-03-03T08:33:19;93424.34;;;1.93;100.00
59367;BME280;45163;47.690;11.770;2023-03-03T08:35:46;93423.88;;;1.84;100.00
59367;BME280;45163;47.690;11.770;2023-03-03T08:38:15;93423.50;;;1.82;100.00
59367;BME280;45163;47.690;11.770;2023-03-03T08:40:42;93421.59;;;1.82;100.00
59367;BME280;45163;47.690;11.770;2023-03-03T08:43:08;93426.22;;;1.85;100.00
59367;BME280;45163;47.690;11.770;2023-03-03T08:45:35;93426.22;;;1.85;100.00
59367;BME280;45163;47.690;11.770;2023-03-03T08:48:02;93429.72;;;1.96;100.00
59367;BME280;45163;47.690;11.770;2023-03-03T08:50:28;93428.28;;;2.10;100.00
59367;BME280;45163;47.690;11.770;2023-03-03T08:52:55;93434.69;;;1.87;100.00
59367;BME280;45163;47.690;11.770;2023-03-03T08:55:21;93432.81;;;1.98;100.00
59367;BME280;45163;47.690;11.770;2023-03-03T08:57:47;93434.38;;;1.99;100.00
59367;BME280;45163;47.690;11.770;2023-03-03T09:00:15;93430.53;;;2.00;100.00
59367;BME280;45163;47.690;11.770;2023-03-03T09:02:42;93430.94;;;2.03;100.00
59367;BME280;45163;47.690;11.770;2023-03-03T09:05:09;93430.91;;;1.99;100.00
59367;BME280;45163;47.690;11.770;2023-03-03T09:07:35;93435.53;;;1.98;100.00
59367;BME280;45163;47.690;11.770;2023-03-03T09:10:01;93439.03;;;2.06;100.00
59367;BME280;45163;47.690;11.770;2023-03-03T09:12:32;93442.88;;;2.09;100.00
59367;BME280;45163;47.690;11.770;2023-03-03T09:15:24;93437.50;;;2.12;100.00
59367;BME280;45163;47.690;11.770;2023-03-03T09:17:49;93434.47;;;2.21;100.00
59367;BME280;45163;47.690;11.770;2023-03-03T09:20:35;93439.13;;;2.28;100.00
59367;BME280;45163;47.690;11.770;2023-03-03T09:23:38;93434.91;;;2.30;100.00
59367;BME280;45163;47.690;11.770;2023-03-03T09:26:21;93439.88;;;2.28;100.00
59367;BME280;45163;47.690;11.770;2023-03-03T09:28:47;93437.59;;;2.30;100.00
59367;BME280;45163;47.690;11.770;2023-03-03T09:31:27;93438.00;;;2.36;100.00
59367;BME280;45163;47.690;11.770;2023-03-03T09:33:55;93438.72;;;2.22;100.00
59367;BME280;45163;47.690;11.770;2023-03-03T09:36:36;93438.03;;;2.46;100.00
59367;BME280;45163;47.690;11.770;2023-03-03T09:42:09;93447.31;;;2.63;100.00
59367;BME280;45163;47.690;11.770;2023-03-03T09:47:37;93451.25;;;2.91;100.00
59367;BME280;45163;47.690;11.770;2023-03-03T09:55:19;93452.41;;;3.00;100.00
59367;BME280;45163;47.690;11.770;2023-03-03T09:58:31;93448.59;;;2.98;100.00
59367;BME280;45163;47.690;11.770;2023-03-03T10:01:05;93448.16;;;2.92;100.00
59367;BME280;45163;47.690;11.770;2023-03-03T10:16:54;93448.22;;;3.46;100.00
59367;BME280;45163;47.690;11.770;2023-03-03T10:19:35;93452.88;;;3.35;100.00
59367;BME280;45163;47.690;11.770;2023-03-03T10:22:25;93455.94;;;3.44;100.00
59367;BME280;45163;47.690;11.770;2023-03-03T10:27:46;93459.78;;;3.18;100.00
59367;BME280;45163;47.690;11.770;2023-03-03T10:32:57;93455.91;;;3.12;100.00
59367;BME280;45163;47.690;11.770;2023-03-03T10:35:46;93468.63;;;3.25;100.00
59367;BME280;45163;47.690;11.770;2023-03-03T10:46:47;93459.81;;;3.57;100.00
59367;BME280;45163;47.690;11.770;2023-03-03T10:49:36;93454.78;;;3.59;100.00
59367;BME280;45163;47.690;11.770;2023-03-03T11:00:26;93463.63;;;3.95;100.00
59367;BME280;45163;47.690;11.770;2023-03-03T11:05:54;93457.41;;;4.23;100.00
59367;BME280;45163;47.690;11.770;2023-03-03T11:09:02;93456.19;;;4.39;100.00
59367;BME280;45163;47.690;11.770;2023-03-03T11:11:25;93455.03;;;4.36;100.00
59367;BME280;45163;47.690;11.770;2023-03-03T11:35:50;93444.03;;;4.79;100.00
59367;BME280;45163;47.690;11.770;2023-03-03T11:40:56;93442.50;;;4.82;100.00
59367;BME280;45163;47.690;11.770;2023-03-03T11:43:26;93440.16;;;4.84;100.00
59367;BME280;45163;47.690;11.770;2023-03-03T11:46:02;93435.91;;;4.86;100.00
59367;BME280;45163;47.690;11.770;2023-03-03T11:51:26;93428.59;;;5.39;100.00
59367;BME280;45163;47.690;11.770;2023-03-03T11:54:09;93415.97;;;5.21;100.00
59367;BME280;45163;47.690;11.770;2023-03-03T11:56:42;93431.56;;;4.99;100.00
59367;BME280;45163;47.690;11.770;2023-03-03T12:02:26;93426.34;;;4.64;100.00
59367;BME280;45163;47.690;11.770;2023-03-03T12:05:14;93433.31;;;4.61;100.00
59367;BME280;45163;47.690;11.770;2023-03-03T12:08:02;93430.16;;;4.77;100.00
59367;BME280;45163;47.690;11.770;2023-03-03T12:13:34;93438.41;;;4.48;100.00
59367;BME280;45163;47.690;11.770;2023-03-03T12:16:18;93431.13;;;4.35;100.00
59367;BME280;45163;47.690;11.770;2023-03-03T12:19:14;93433.84;;;4.28;100.00
59367;BME280;45163;47.690;11.770;2023-03-03T12:24:57;93432.66;;;4.39;100.00
59367;BME280;45163;47.690;11.770;2023-03-03T12:27:39;93430.44;;;3.98;100.00
59367;BME280;45163;47.690;11.770;2023-03-03T12:33:11;93428.84;;;4.19;100.00
59367;BME280;45163;47.690;11.770;2023-03-03T12:48:58;93416.69;;;4.66;100.00
59367;BME280;45163;47.690;11.770;2023-03-03T12:54:29;93408.44;;;4.91;100.00
59367;BME280;45163;47.690;11.770;2023-03-03T13:10:25;93398.81;;;5.87;100.00
59367;BME280;45163;47.690;11.770;2023-03-03T13:15:30;93392.19;;;6.60;100.00
59367;BME280;45163;47.690;11.770;2023-03-03T13:18:33;93385.25;;;6.90;100.00
59367;BME280;45163;47.690;11.770;2023-03-03T13:21:12;93393.72;;;7.19;100.00
59367;BME280;45163;47.690;11.770;2023-03-03T13:23:54;93398.75;;;8.14;100.00
59367;BME280;45163;47.690;11.770;2023-03-03T13:29:18;93392.44;;;7.97;100.00
59367;BME280;45163;47.690;11.770;2023-03-03T13:32:02;93386.56;;;8.03;100.00
59367;BME280;45163;47.690;11.770;2023-03-03T13:55:55;93384.06;;;6.91;100.00
59367;BME280;45163;47.690;11.770;2023-03-03T13:58:48;93388.53;;;6.43;100.00
59367;BME280;45163;47.690;11.770;2023-03-03T14:06:40;93382.94;;;6.27;100.00
59367;BME280;45163;47.690;11.770;2023-03-03T14:14:48;93382.38;;;5.64;100.00
59367;BME280;45163;47.690;11.770;2023-03-03T14:20:15;93387.16;;;5.90;100.00
59367;BME280;45163;47.690;11.770;2023-03-03T14:25:15;93385.53;;;5.59;100.00
59367;BME280;45163;47.690;11.770;2023-03-03T14:35:38;93384.88;;;5.44;100.00
59367;BME280;45163;47.690;11.770;2023-03-03T14:38:12;93387.59;;;5.44;100.00
59367;BME280;45163;47.690;11.770;2023-03-03T14:40:40;93382.88;;;5.52;100.00
59367;BME280;45163;47.690;11.770;2023-03-03T14:43:26;93389.09;;;5.48;100.00
59367;BME280;45163;47.690;11.770;2023-03-03T14:48:54;93379.25;;;4.65;100.00
59367;BME280;45163;47.690;11.770;2023-03-03T14:51:45;93378.56;;;4.46;100.00
59367;BME280;45163;47.690;11.770;2023-03-03T15:00:25;93382.34;;;4.60;100.00
59367;BME280;45163;47.690;11.770;2023-03-03T15:03:04;93381.41;;;4.88;100.00
59367;BME280;45163;47.690;11.770;2023-03-03T15:05:50;93376.75;;;4.92;100.00
59367;BME280;45163;47.690;11.770;2023-03-03T15:08:34;93373.34;;;4.81;100.00
59367;BME280;45163;47.690;11.770;2023-03-03T15:13:44;93375.69;;;4.75;100.00
59367;BME280;45163;47.690;11.770;2023-03-03T15:16:16;93368.34;;;4.75;100.00
59367;BME280;45163;47.690;11.770;2023-03-03T15:24:33;93373.63;;;4.27;100.00
59367;BME280;45163;47.690;11.770;2023-03-03T15:27:17;93378.66;;;4.25;100.00
59367;BME280;45163;47.690;11.770;2023-03-03T15:30:08;93380.59;;;4.24;100.00
59367;BME280;45163;47.690;11.770;2023-03-03T15:32:51;93385.63;;;4.15;100.00
59367;BME280;45163;47.690;11.770;2023-03-03T15:35:33;93387.81;;;4.45;100.00
59367;BME280;45163;47.690;11.770;2023-03-03T15:40:48;93390.75;;;3.74;100.00
59367;BME280;45163;47.690;11.770;2023-03-03T15:43:21;93392.72;;;3.56;100.00
59367;BME280;45163;47.690;11.770;2023-03-03T15:48:49;93402.75;;;3.34;100.00
59367;BME280;45163;47.690;11.770;2023-03-03T15:53:57;93408.53;;;3.29;100.00
59367;BME280;45163;47.690;11.770;2023-03-03T16:02:22;93411.63;;;3.23;100.00
59367;BME280;45163;47.690;11.770;2023-03-03T16:04:58;93410.06;;;3.37;100.00
59367;BME280;45163;47.690;11.770;2023-03-03T16:10:17;93421.19;;;2.82;100.00
59367;BME280;45163;47.690;11.770;2023-03-03T16:15:47;93424.63;;;2.61;100.00
59367;BME280;45163;47.690;11.770;2023-03-03T16:18:26;93433.84;;;2.56;100.00
59367;BME280;45163;47.690;11.770;2023-03-03T16:23:54;93442.22;;;2.37;100.00
59367;BME280;45163;47.690;11.770;2023-03-03T16:29:18;93450.63;;;2.17;100.00
59367;BME280;45163;47.690;11.770;2023-03-03T16:34:53;93452.16;;;2.15;100.00
59367;BME280;45163;47.690;11.770;2023-03-03T16:37:24;93456.34;;;2.12;100.00
59367;BME280;45163;47.690;11.770;2023-03-03T16:42:46;93463.66;;;2.12;100.00
59367;BME280;45163;47.690;11.770;2023-03-03T16:48:02;93466.66;;;1.92;100.00
59367;BME280;45163;47.690;11.770;2023-03-03T16:51:02;93475.81;;;1.88;100.00
59367;BME280;45163;47.690;11.770;2023-03-03T16:53:51;93486.75;;;2.09;100.00
59367;BME280;45163;47.690;11.770;2023-03-03T16:58:53;93488.47;;;1.84;100.00
59367;BME280;45163;47.690;11.770;2023-03-03T17:01:49;93492.28;;;1.79;100.00
59367;BME280;45163;47.690;11.770;2023-03-03T17:07:21;93500.03;;;1.84;100.00
59367;BME280;45163;47.690;11.770;2023-03-03T17:20:53;93500.19;;;1.54;100.00
59367;BME280;45163;47.690;11.770;2023-03-03T17:31:19;93514.84;;;1.60;100.00
59367;BME280;45163;47.690;11.770;2023-03-03T17:36:57;93516.25;;;1.43;100.00
59367;BME280;45163;47.690;11.770;2023-03-03T18:09:16;93544.63;;;1.00;100.00
59367;BME280;45163;47.690;11.770;2023-03-03T18:11:58;93540.72;;;0.94;100.00
59367;BME280;45163;47.690;11.770;2023-03-03T18:22:51;93559.16;;;0.95;100.00
59367;BME280;45163;47.690;11.770;2023-03-03T18:30:57;93554.50;;;0.89;100.00